Gloverville, South Carolina
Current Conditions -  °F | °C
As of 1:35 AM on Wednesday 26 Nov 2014 (Local Time) from KAIK Reporting Station
Light Rain Light Rain  
Wind Chill: 45°   Ceiling: 2100
Heat Index: 48°   Visibility: 7mi
Dew Point: 48°   Wind: 7mph
Humidity: 100%   Direction: 300°WNW
Pressure: 29.96"   Gusts: NA
Location:  33.53°N, 81.81°W
Report Text: KAIK 260635Z AUTO 30006KT 7SM -RA SCT006 OVC021 09/09 A2996 RMK AO2 PNO
Loading
Personal Weather Stations






























Interactive Weather Map New forecast layout! Learn more

10-Day Weather Forecast

Advertisements
Track Severe Weather on mobile